sensor_id;sensor_type;location;lat;lon;timestamp;temperature;humidity
23124;DHT22;11731;48.592;8.858;2023-10-13T00:01:21;19.00;99.90
23124;DHT22;11731;48.592;8.858;2023-10-13T00:03:49;18.90;99.90
23124;DHT22;11731;48.592;8.858;2023-10-13T00:06:21;18.80;99.90
23124;DHT22;11731;48.592;8.858;2023-10-13T00:08:52;18.80;99.70
23124;DHT22;11731;48.592;8.858;2023-10-13T00:11:22;18.80;98.90
23124;DHT22;11731;48.592;8.858;2023-10-13T00:14:24;18.70;98.40
23124;DHT22;11731;48.592;8.858;2023-10-13T00:16:59;18.60;99.10
23124;DHT22;11731;48.592;8.858;2023-10-13T00:19:30;18.80;99.70
23124;DHT22;11731;48.592;8.858;2023-10-13T00:22:04;18.60;99.70
23124;DHT22;11731;48.592;8.858;2023-10-13T00:24:38;18.60;99.40
23124;DHT22;11731;48.592;8.858;2023-10-13T00:27:13;18.70;98.80
23124;DHT22;11731;48.592;8.858;2023-10-13T00:29:55;18.70;98.90
23124;DHT22;11731;48.592;8.858;2023-10-13T00:32:41;18.70;98.80
23124;DHT22;11731;48.592;8.858;2023-10-13T00:35:10;18.50;99.20
23124;DHT22;11731;48.592;8.858;2023-10-13T00:37:38;18.60;99.10
23124;DHT22;11731;48.592;8.858;2023-10-13T00:40:10;18.40;99.40
23124;DHT22;11731;48.592;8.858;2023-10-13T00:42:53;18.20;99.50
23124;DHT22;11731;48.592;8.858;2023-10-13T00:45:21;18.10;99.60
23124;DHT22;11731;48.592;8.858;2023-10-13T00:47:47;18.20;99.90
23124;DHT22;11731;48.592;8.858;2023-10-13T00:50:22;18.30;99.80
23124;DHT22;11731;48.592;8.858;2023-10-13T00:52:50;18.40;99.60
23124;DHT22;11731;48.592;8.858;2023-10-13T00:55:18;18.40;99.30
23124;DHT22;11731;48.592;8.858;2023-10-13T00:57:52;18.50;99.20
23124;DHT22;11731;48.592;8.858;2023-10-13T01:00:23;18.60;99.20
23124;DHT22;11731;48.592;8.858;2023-10-13T01:02:53;18.70;98.80
23124;DHT22;11731;48.592;8.858;2023-10-13T01:05:26;18.60;99.00
23124;DHT22;11731;48.592;8.858;2023-10-13T01:07:52;18.60;99.30
23124;DHT22;11731;48.592;8.858;2023-10-13T01:10:20;18.30;99.20
23124;DHT22;11731;48.592;8.858;2023-10-13T01:13:10;18.20;99.90
23124;DHT22;11731;48.592;8.858;2023-10-13T01:15:37;18.10;99.90
23124;DHT22;11731;48.592;8.858;2023-10-13T01:18:07;18.10;99.90
23124;DHT22;11731;48.592;8.858;2023-10-13T01:20:37;17.90;99.90
23124;DHT22;11731;48.592;8.858;2023-10-13T01:23:11;17.40;99.90
23124;DHT22;11731;48.592;8.858;2023-10-13T01:25:44;17.10;99.90
23124;DHT22;11731;48.592;8.858;2023-10-13T01:28:10;17.10;99.90
23124;DHT22;11731;48.592;8.858;2023-10-13T01:30:41;16.90;99.90
23124;DHT22;11731;48.592;8.858;2023-10-13T01:33:10;17.00;99.90
23124;DHT22;11731;48.592;8.858;2023-10-13T01:35:37;17.10;99.90
23124;DHT22;11731;48.592;8.858;2023-10-13T01:38:08;17.40;99.90
23124;DHT22;11731;48.592;8.858;2023-10-13T01:42:43;17.50;99.90
23124;DHT22;11731;48.592;8.858;2023-10-13T01:43:43;17.40;99.90
23124;DHT22;11731;48.592;8.858;2023-10-13T01:46:10;17.40;99.90
23124;DHT22;11731;48.592;8.858;2023-10-13T01:48:39;17.50;99.90
23124;DHT22;11731;48.592;8.858;2023-10-13T01:51:09;17.60;99.90
23124;DHT22;11731;48.592;8.858;2023-10-13T01:53:36;17.60;99.90
23124;DHT22;11731;48.592;8.858;2023-10-13T01:56:05;17.50;99.90
23124;DHT22;11731;48.592;8.858;2023-10-13T01:58:36;17.50;99.90
23124;DHT22;11731;48.592;8.858;2023-10-13T02:01:06;17.60;99.90
23124;DHT22;11731;48.592;8.858;2023-10-13T02:03:33;17.50;99.90
23124;DHT22;11731;48.592;8.858;2023-10-13T02:06:02;17.50;99.90
23124;DHT22;11731;48.592;8.858;2023-10-13T02:08:30;17.50;99.90
23124;DHT22;11731;48.592;8.858;2023-10-13T02:10:58;17.40;99.90
23124;DHT22;11731;48.592;8.858;2023-10-13T02:13:26;17.30;99.90
23124;DHT22;11731;48.592;8.858;2023-10-13T02:15:56;17.30;99.90
23124;DHT22;11731;48.592;8.858;2023-10-13T02:18:24;17.30;99.90
23124;DHT22;11731;48.592;8.858;2023-10-13T02:20:53;17.20;99.90
23124;DHT22;11731;48.592;8.858;2023-10-13T02:23:22;16.90;99.90
23124;DHT22;11731;48.592;8.858;2023-10-13T02:25:50;17.00;99.90
23124;DHT22;11731;48.592;8.858;2023-10-13T02:28:27;17.00;99.90
23124;DHT22;11731;48.592;8.858;2023-10-13T02:34:16;17.00;99.90
23124;DHT22;11731;48.592;8.858;2023-10-13T02:36:44;16.90;99.90
23124;DHT22;11731;48.592;8.858;2023-10-13T02:39:14;16.90;99.90
23124;DHT22;11731;48.592;8.858;2023-10-13T02:41:50;16.90;99.90
23124;DHT22;11731;48.592;8.858;2023-10-13T02:44:34;16.80;99.90
23124;DHT22;11731;48.592;8.858;2023-10-13T02:47:02;16.70;99.90
23124;DHT22;11731;48.592;8.858;2023-10-13T02:49:31;16.70;99.90
23124;DHT22;11731;48.592;8.858;2023-10-13T02:52:17;16.60;99.90
23124;DHT22;11731;48.592;8.858;2023-10-13T02:54:45;16.50;99.90
23124;DHT22;11731;48.592;8.858;2023-10-13T02:57:12;16.50;99.90
23124;DHT22;11731;48.592;8.858;2023-10-13T03:00:10;16.40;99.90
23124;DHT22;11731;48.592;8.858;2023-10-13T03:02:41;16.50;99.90
23124;DHT22;11731;48.592;8.858;2023-10-13T03:05:11;16.40;99.90
23124;DHT22;11731;48.592;8.858;2023-10-13T03:07:39;16.30;99.90
23124;DHT22;11731;48.592;8.858;2023-10-13T03:13:14;16.20;99.90
23124;DHT22;11731;48.592;8.858;2023-10-13T03:15:42;16.00;99.90
23124;DHT22;11731;48.592;8.858;2023-10-13T03:18:13;16.00;99.90
23124;DHT22;11731;48.592;8.858;2023-10-13T03:20:44;15.90;99.90
23124;DHT22;11731;48.592;8.858;2023-10-13T03:23:14;15.70;99.90
23124;DHT22;11731;48.592;8.858;2023-10-13T03:25:41;15.10;99.90
23124;DHT22;11731;48.592;8.858;2023-10-13T03:28:08;15.20;99.90
23124;DHT22;11731;48.592;8.858;2023-10-13T03:30:37;15.50;99.90
23124;DHT22;11731;48.592;8.858;2023-10-13T03:33:09;15.50;99.90
23124;DHT22;11731;48.592;8.858;2023-10-13T03:35:37;15.50;99.90
23124;DHT22;11731;48.592;8.858;2023-10-13T03:38:04;15.40;99.90
23124;DHT22;11731;48.592;8.858;2023-10-13T03:40:37;15.50;99.90
23124;DHT22;11731;48.592;8.858;2023-10-13T03:43:05;15.60;99.90
23124;DHT22;11731;48.592;8.858;2023-10-13T03:45:36;15.70;99.90
23124;DHT22;11731;48.592;8.858;2023-10-13T03:48:05;15.70;99.90
23124;DHT22;11731;48.592;8.858;2023-10-13T03:50:38;15.70;99.90
23124;DHT22;11731;48.592;8.858;2023-10-13T03:53:12;15.70;99.90
23124;DHT22;11731;48.592;8.858;2023-10-13T03:56:11;15.70;99.90
23124;DHT22;11731;48.592;8.858;2023-10-13T03:58:41;15.60;99.90
23124;DHT22;11731;48.592;8.858;2023-10-13T04:01:11;15.70;99.90
23124;DHT22;11731;48.592;8.858;2023-10-13T04:03:41;15.60;99.90
23124;DHT22;11731;48.592;8.858;2023-10-13T04:06:24;15.70;99.90
23124;DHT22;11731;48.592;8.858;2023-10-13T04:09:13;15.80;99.90
23124;DHT22;11731;48.592;8.858;2023-10-13T04:12:10;15.80;99.90
23124;DHT22;11731;48.592;8.858;2023-10-13T04:15:13;15.80;99.90
23124;DHT22;11731;48.592;8.858;2023-10-13T04:17:45;15.70;99.90
23124;DHT22;11731;48.592;8.858;2023-10-13T04:20:14;15.70;99.90
23124;DHT22;11731;48.592;8.858;2023-10-13T04:22:54;15.70;99.90
23124;DHT22;11731;48.592;8.858;2023-10-13T04:25:45;15.70;99.90
23124;DHT22;11731;48.592;8.858;2023-10-13T04:28:29;15.60;99.90
23124;DHT22;11731;48.592;8.858;2023-10-13T04:31:16;15.50;99.90
23124;DHT22;11731;48.592;8.858;2023-10-13T04:33:54;15.60;99.90
23124;DHT22;11731;48.592;8.858;2023-10-13T04:36:29;15.50;99.90
23124;DHT22;11731;48.592;8.858;2023-10-13T04:39:12;15.60;99.90
23124;DHT22;11731;48.592;8.858;2023-10-13T04:41:54;15.50;99.90
23124;DHT22;11731;48.592;8.858;2023-10-13T04:44:25;15.40;99.90
23124;DHT22;11731;48.592;8.858;2023-10-13T04:47:08;15.30;99.90
23124;DHT22;11731;48.592;8.858;2023-10-13T04:53:04;15.50;99.90
23124;DHT22;11731;48.592;8.858;2023-10-13T04:55:50;15.40;99.90
23124;DHT22;11731;48.592;8.858;2023-10-13T04:58:32;15.40;99.90
23124;DHT22;11731;48.592;8.858;2023-10-13T05:01:32;15.40;99.90
23124;DHT22;11731;48.592;8.858;2023-10-13T05:04:17;15.40;99.90
23124;DHT22;11731;48.592;8.858;2023-10-13T05:07:05;15.50;99.90
23124;DHT22;11731;48.592;8.858;2023-10-13T05:09:50;15.50;99.90
23124;DHT22;11731;48.592;8.858;2023-10-13T05:12:36;15.60;99.90
23124;DHT22;11731;48.592;8.858;2023-10-13T05:15:20;15.60;99.90
23124;DHT22;11731;48.592;8.858;2023-10-13T05:18:16;15.40;99.90
23124;DHT22;11731;48.592;8.858;2023-10-13T05:21:00;15.50;99.90
23124;DHT22;11731;48.592;8.858;2023-10-13T05:23:45;15.40;99.90
23124;DHT22;11731;48.592;8.858;2023-10-13T05:26:29;15.50;99.90
23124;DHT22;11731;48.592;8.858;2023-10-13T05:29:14;15.40;99.90
23124;DHT22;11731;48.592;8.858;2023-10-13T05:31:59;15.40;99.90
23124;DHT22;11731;48.592;8.858;2023-10-13T05:34:43;15.40;99.90
23124;DHT22;11731;48.592;8.858;2023-10-13T05:37:27;15.50;99.90
23124;DHT22;11731;48.592;8.858;2023-10-13T05:40:11;15.40;99.90
23124;DHT22;11731;48.592;8.858;2023-10-13T05:42:56;15.30;99.90
23124;DHT22;11731;48.592;8.858;2023-10-13T05:45:41;15.20;99.90
23124;DHT22;11731;48.592;8.858;2023-10-13T05:48:22;15.20;99.90
23124;DHT22;11731;48.592;8.858;2023-10-13T05:51:20;15.30;99.90
23124;DHT22;11731;48.592;8.858;2023-10-13T05:54:10;15.20;99.90
23124;DHT22;11731;48.592;8.858;2023-10-13T05:56:54;15.40;99.90
23124;DHT22;11731;48.592;8.858;2023-10-13T05:59:39;15.40;99.90
23124;DHT22;11731;48.592;8.858;2023-10-13T06:02:25;15.50;99.90
23124;DHT22;11731;48.592;8.858;2023-10-13T06:05:10;15.60;99.90
23124;DHT22;11731;48.592;8.858;2023-10-13T06:07:55;15.60;99.90
23124;DHT22;11731;48.592;8.858;2023-10-13T06:10:40;15.80;99.90
23124;DHT22;11731;48.592;8.858;2023-10-13T06:13:24;16.00;99.90
23124;DHT22;11731;48.592;8.858;2023-10-13T06:16:10;15.90;99.90
23124;DHT22;11731;48.592;8.858;2023-10-13T06:18:56;16.00;99.90
23124;DHT22;11731;48.592;8.858;2023-10-13T06:21:40;16.10;99.90
23124;DHT22;11731;48.592;8.858;2023-10-13T06:24:25;16.10;99.90
23124;DHT22;11731;48.592;8.858;2023-10-13T06:27:09;16.30;99.90
23124;DHT22;11731;48.592;8.858;2023-10-13T06:30:05;16.40;99.90
23124;DHT22;11731;48.592;8.858;2023-10-13T06:32:32;16.50;99.90
23124;DHT22;11731;48.592;8.858;2023-10-13T06:35:12;16.60;99.90
23124;DHT22;11731;48.592;8.858;2023-10-13T06:38:03;16.70;99.90
23124;DHT22;11731;48.592;8.858;2023-10-13T06:40:35;16.80;99.90
23124;DHT22;11731;48.592;8.858;2023-10-13T06:43:03;16.70;99.90
23124;DHT22;11731;48.592;8.858;2023-10-13T06:45:42;16.60;99.90
23124;DHT22;11731;48.592;8.858;2023-10-13T06:48:16;16.60;99.90
23124;DHT22;11731;48.592;8.858;2023-10-13T06:50:49;16.50;99.90
23124;DHT22;11731;48.592;8.858;2023-10-13T06:54:28;16.60;99.90
23124;DHT22;11731;48.592;8.858;2023-10-13T06:56:50;16.60;99.90
23124;DHT22;11731;48.592;8.858;2023-10-13T06:59:55;16.70;99.90
23124;DHT22;11731;48.592;8.858;2023-10-13T07:02:21;16.80;99.90
23124;DHT22;11731;48.592;8.858;2023-10-13T07:04:49;16.80;99.90
23124;DHT22;11731;48.592;8.858;2023-10-13T07:07:51;16.80;99.90
23124;DHT22;11731;48.592;8.858;2023-10-13T07:10:22;17.00;99.90
23124;DHT22;11731;48.592;8.858;2023-10-13T07:12:55;17.00;99.90
23124;DHT22;11731;48.592;8.858;2023-10-13T07:15:25;17.10;99.90
23124;DHT22;11731;48.592;8.858;2023-10-13T07:17:53;17.10;99.90
23124;DHT22;11731;48.592;8.858;2023-10-13T07:20:27;17.10;99.90
23124;DHT22;11731;48.592;8.858;2023-10-13T07:23:01;17.20;99.90
23124;DHT22;11731;48.592;8.858;2023-10-13T07:26:12;17.50;99.90
23124;DHT22;11731;48.592;8.858;2023-10-13T07:28:34;17.70;99.90
23124;DHT22;11731;48.592;8.858;2023-10-13T07:31:02;18.10;99.90
23124;DHT22;11731;48.592;8.858;2023-10-13T07:33:38;18.30;99.90
23124;DHT22;11731;48.592;8.858;2023-10-13T07:36:09;18.50;99.90
23124;DHT22;11731;48.592;8.858;2023-10-13T07:38:55;18.70;99.90
23124;DHT22;11731;48.592;8.858;2023-10-13T07:41:46;18.90;99.90
23124;DHT22;11731;48.592;8.858;2023-10-13T07:44:17;18.90;99.90
23124;DHT22;11731;48.592;8.858;2023-10-13T07:46:45;19.00;99.90
23124;DHT22;11731;48.592;8.858;2023-10-13T07:49:25;19.00;99.90
23124;DHT22;11731;48.592;8.858;2023-10-13T07:51:57;19.30;99.90
23124;DHT22;11731;48.592;8.858;2023-10-13T07:54:27;19.60;99.90
23124;DHT22;11731;48.592;8.858;2023-10-13T07:56:54;19.90;99.90
23124;DHT22;11731;48.592;8.858;2023-10-13T07:59:21;20.10;99.90
23124;DHT22;11731;48.592;8.858;2023-10-13T08:01:51;20.10;99.90
23124;DHT22;11731;48.592;8.858;2023-10-13T08:04:31;20.30;99.90
23124;DHT22;11731;48.592;8.858;2023-10-13T08:07:01;20.30;99.90
23124;DHT22;11731;48.592;8.858;2023-10-13T08:09:39;20.50;99.90
23124;DHT22;11731;48.592;8.858;2023-10-13T08:12:07;20.70;99.40
23124;DHT22;11731;48.592;8.858;2023-10-13T08:14:37;20.90;99.00
23124;DHT22;11731;48.592;8.858;2023-10-13T08:17:07;21.00;99.20
23124;DHT22;11731;48.592;8.858;2023-10-13T08:19:38;20.70;98.80
23124;DHT22;11731;48.592;8.858;2023-10-13T08:22:11;20.40;99.00
23124;DHT22;11731;48.592;8.858;2023-10-13T08:24:52;20.50;98.70
23124;DHT22;11731;48.592;8.858;2023-10-13T08:27:36;20.20;98.70
23124;DHT22;11731;48.592;8.858;2023-10-13T08:30:14;20.40;98.70
23124;DHT22;11731;48.592;8.858;2023-10-13T08:32:54;20.80;98.30
23124;DHT22;11731;48.592;8.858;2023-10-13T08:35:23;21.00;98.20
23124;DHT22;11731;48.592;8.858;2023-10-13T08:37:59;21.30;97.50
23124;DHT22;11731;48.592;8.858;2023-10-13T08:40:31;21.30;97.60
23124;DHT22;11731;48.592;8.858;2023-10-13T08:43:34;21.40;97.10
23124;DHT22;11731;48.592;8.858;2023-10-13T08:46:09;21.30;96.50
23124;DHT22;11731;48.592;8.858;2023-10-13T08:48:55;21.20;97.60
23124;DHT22;11731;48.592;8.858;2023-10-13T08:51:53;21.30;97.30
23124;DHT22;11731;48.592;8.858;2023-10-13T08:54:35;21.10;96.60
23124;DHT22;11731;48.592;8.858;2023-10-13T08:57:12;21.40;96.80
23124;DHT22;11731;48.592;8.858;2023-10-13T08:59:58;21.80;96.40
23124;DHT22;11731;48.592;8.858;2023-10-13T09:02:45;21.70;96.70
23124;DHT22;11731;48.592;8.858;2023-10-13T09:05:53;21.90;96.70
23124;DHT22;11731;48.592;8.858;2023-10-13T09:08:33;21.90;96.70
23124;DHT22;11731;48.592;8.858;2023-10-13T09:11:42;21.80;97.10
23124;DHT22;11731;48.592;8.858;2023-10-13T09:14:35;21.90;96.70
23124;DHT22;11731;48.592;8.858;2023-10-13T09:17:19;22.10;97.20
23124;DHT22;11731;48.592;8.858;2023-10-13T09:20:00;22.00;96.70
23124;DHT22;11731;48.592;8.858;2023-10-13T09:22:48;22.00;96.70
23124;DHT22;11731;48.592;8.858;2023-10-13T09:25:22;22.10;96.80
23124;DHT22;11731;48.592;8.858;2023-10-13T09:27:49;22.60;96.20
23124;DHT22;11731;48.592;8.858;2023-10-13T09:30:20;22.60;95.80
23124;DHT22;11731;48.592;8.858;2023-10-13T09:33:20;22.80;95.80
23124;DHT22;11731;48.592;8.858;2023-10-13T09:36:24;23.00;95.50
23124;DHT22;11731;48.592;8.858;2023-10-13T09:39:10;22.90;95.30
23124;DHT22;11731;48.592;8.858;2023-10-13T09:41:41;22.80;95.20
23124;DHT22;11731;48.592;8.858;2023-10-13T09:44:08;22.80;94.70
23124;DHT22;11731;48.592;8.858;2023-10-13T09:46:41;23.00;95.00
23124;DHT22;11731;48.592;8.858;2023-10-13T09:52:34;23.60;93.70
23124;DHT22;11731;48.592;8.858;2023-10-13T09:58:33;24.30;93.60
23124;DHT22;11731;48.592;8.858;2023-10-13T10:01:03;24.50;93.60
23124;DHT22;11731;48.592;8.858;2023-10-13T10:06:53;24.90;92.80
23124;DHT22;11731;48.592;8.858;2023-10-13T10:10:32;25.40;92.30
23124;DHT22;11731;48.592;8.858;2023-10-13T10:15:47;25.20;93.10
23124;DHT22;11731;48.592;8.858;2023-10-13T10:18:38;25.00;92.70
23124;DHT22;11731;48.592;8.858;2023-10-13T10:26:58;25.90;91.20
23124;DHT22;11731;48.592;8.858;2023-10-13T10:29:52;25.60;91.80
23124;DHT22;11731;48.592;8.858;2023-10-13T10:32:19;25.40;89.20
23124;DHT22;11731;48.592;8.858;2023-10-13T10:44:55;25.50;90.40
23124;DHT22;11731;48.592;8.858;2023-10-13T10:47:52;25.60;90.10
23124;DHT22;11731;48.592;8.858;2023-10-13T10:50:26;25.60;90.30
23124;DHT22;11731;48.592;8.858;2023-10-13T10:53:08;25.60;89.00
23124;DHT22;11731;48.592;8.858;2023-10-13T10:56:39;25.50;89.80
23124;DHT22;11731;48.592;8.858;2023-10-13T11:02:17;25.00;90.00
23124;DHT22;11731;48.592;8.858;2023-10-13T11:04:52;25.00;91.10
23124;DHT22;11731;48.592;8.858;2023-10-13T11:07:22;24.80;90.80
23124;DHT22;11731;48.592;8.858;2023-10-13T11:09:50;24.90;91.40
23124;DHT22;11731;48.592;8.858;2023-10-13T11:12:19;25.00;91.40
23124;DHT22;11731;48.592;8.858;2023-10-13T11:15:03;25.00;90.60
23124;DHT22;11731;48.592;8.858;2023-10-13T11:17:54;25.10;90.20
23124;DHT22;11731;48.592;8.858;2023-10-13T11:20:22;25.10;90.20
23124;DHT22;11731;48.592;8.858;2023-10-13T11:22:58;25.10;90.20
23124;DHT22;11731;48.592;8.858;2023-10-13T11:25:26;25.30;89.90
23124;DHT22;11731;48.592;8.858;2023-10-13T11:28:09;25.50;89.80
23124;DHT22;11731;48.592;8.858;2023-10-13T11:30:43;25.50;88.40
23124;DHT22;11731;48.592;8.858;2023-10-13T11:33:17;25.80;89.70
23124;DHT22;11731;48.592;8.858;2023-10-13T11:35:49;25.80;88.80
23124;DHT22;11731;48.592;8.858;2023-10-13T11:38:22;25.80;87.30
23124;DHT22;11731;48.592;8.858;2023-10-13T11:41:52;26.00;86.80
23124;DHT22;11731;48.592;8.858;2023-10-13T11:44:16;26.00;86.50
23124;DHT22;11731;48.592;8.858;2023-10-13T11:47:00;26.10;86.10
23124;DHT22;11731;48.592;8.858;2023-10-13T11:49:46;26.40;86.70
23124;DHT22;11731;48.592;8.858;2023-10-13T11:52:14;26.60;84.20
23124;DHT22;11731;48.592;8.858;2023-10-13T11:54:51;27.10;83.00
23124;DHT22;11731;48.592;8.858;2023-10-13T11:57:20;27.40;82.40
23124;DHT22;11731;48.592;8.858;2023-10-13T12:00:11;27.50;81.90
23124;DHT22;11731;48.592;8.858;2023-10-13T12:03:12;27.70;81.90
23124;DHT22;11731;48.592;8.858;2023-10-13T12:06:19;27.80;81.30
23124;DHT22;11731;48.592;8.858;2023-10-13T12:11:35;26.90;78.00
23124;DHT22;11731;48.592;8.858;2023-10-13T12:14:04;26.50;81.40
23124;DHT22;11731;48.592;8.858;2023-10-13T12:20:02;26.70;79.10
23124;DHT22;11731;48.592;8.858;2023-10-13T12:22:32;26.60;77.60
23124;DHT22;11731;48.592;8.858;2023-10-13T12:25:05;26.70;78.60
23124;DHT22;11731;48.592;8.858;2023-10-13T12:27:45;26.90;78.40
23124;DHT22;11731;48.592;8.858;2023-10-13T12:30:16;26.80;77.50
23124;DHT22;11731;48.592;8.858;2023-10-13T12:32:49;26.90;77.90
23124;DHT22;11731;48.592;8.858;2023-10-13T12:35:31;26.80;76.40
23124;DHT22;11731;48.592;8.858;2023-10-13T12:38:02;26.70;77.30
23124;DHT22;11731;48.592;8.858;2023-10-13T12:40:34;26.80;77.20
23124;DHT22;11731;48.592;8.858;2023-10-13T12:43:14;26.90;76.50
23124;DHT22;11731;48.592;8.858;2023-10-13T12:46:08;26.80;76.70
23124;DHT22;11731;48.592;8.858;2023-10-13T12:52:46;26.80;77.50
23124;DHT22;11731;48.592;8.858;2023-10-13T12:55:19;27.20;75.50
23124;DHT22;11731;48.592;8.858;2023-10-13T12:57:50;27.20;74.30
23124;DHT22;11731;48.592;8.858;2023-10-13T13:00:17;27.00;75.70
23124;DHT22;11731;48.592;8.858;2023-10-13T13:02:49;27.00;76.20
23124;DHT22;11731;48.592;8.858;2023-10-13T13:06:05;27.00;75.10
23124;DHT22;11731;48.592;8.858;2023-10-13T13:08:32;27.10;74.60
23124;DHT22;11731;48.592;8.858;2023-10-13T13:11:03;27.40;75.60
23124;DHT22;11731;48.592;8.858;2023-10-13T13:13:30;27.50;77.00
23124;DHT22;11731;48.592;8.858;2023-10-13T13:15:57;27.80;75.00
23124;DHT22;11731;48.592;8.858;2023-10-13T13:18:24;27.40;74.10
23124;DHT22;11731;48.592;8.858;2023-10-13T13:20:51;27.30;74.50
23124;DHT22;11731;48.592;8.858;2023-10-13T13:23:21;27.30;74.10
23124;DHT22;11731;48.592;8.858;2023-10-13T13:25:58;27.20;74.00
23124;DHT22;11731;48.592;8.858;2023-10-13T13:28:41;27.00;73.50
23124;DHT22;11731;48.592;8.858;2023-10-13T13:31:11;27.10;73.20
23124;DHT22;11731;48.592;8.858;2023-10-13T13:33:39;27.20;74.30
23124;DHT22;11731;48.592;8.858;2023-10-13T13:36:09;27.10;74.20
23124;DHT22;11731;48.592;8.858;2023-10-13T13:38:39;27.10;73.80
23124;DHT22;11731;48.592;8.858;2023-10-13T13:41:11;27.00;72.70
23124;DHT22;11731;48.592;8.858;2023-10-13T13:43:43;27.00;72.80
23124;DHT22;11731;48.592;8.858;2023-10-13T13:46:21;26.90;72.80
23124;DHT22;11731;48.592;8.858;2023-10-13T13:49:04;27.10;73.70
23124;DHT22;11731;48.592;8.858;2023-10-13T13:51:34;27.50;73.50
23124;DHT22;11731;48.592;8.858;2023-10-13T13:54:03;27.70;73.50
23124;DHT22;11731;48.592;8.858;2023-10-13T13:56:41;27.70;72.80
23124;DHT22;11731;48.592;8.858;2023-10-13T13:59:09;27.40;71.70
23124;DHT22;11731;48.592;8.858;2023-10-13T14:01:41;27.40;71.60
23124;DHT22;11731;48.592;8.858;2023-10-13T14:04:10;27.30;71.20
23124;DHT22;11731;48.592;8.858;2023-10-13T14:06:37;27.30;71.70
23124;DHT22;11731;48.592;8.858;2023-10-13T14:09:04;27.30;72.00
23124;DHT22;11731;48.592;8.858;2023-10-13T14:11:40;27.30;68.50
23124;DHT22;11731;48.592;8.858;2023-10-13T14:14:25;27.30;70.50
23124;DHT22;11731;48.592;8.858;2023-10-13T14:17:00;27.30;69.50
23124;DHT22;11731;48.592;8.858;2023-10-13T14:19:33;27.20;69.50
23124;DHT22;11731;48.592;8.858;2023-10-13T14:22:44;27.30;70.20
23124;DHT22;11731;48.592;8.858;2023-10-13T14:25:15;27.40;69.00
23124;DHT22;11731;48.592;8.858;2023-10-13T14:27:42;27.40;68.50
23124;DHT22;11731;48.592;8.858;2023-10-13T14:30:32;27.40;70.30
23124;DHT22;11731;48.592;8.858;2023-10-13T14:33:48;27.50;70.90
23124;DHT22;11731;48.592;8.858;2023-10-13T14:37:16;27.40;69.40
23124;DHT22;11731;48.592;8.858;2023-10-13T14:40:59;27.50;69.20
23124;DHT22;11731;48.592;8.858;2023-10-13T14:43:57;27.50;69.40
23124;DHT22;11731;48.592;8.858;2023-10-13T15:04:23;27.30;67.10
23124;DHT22;11731;48.592;8.858;2023-10-13T15:06:56;27.00;66.20
23124;DHT22;11731;48.592;8.858;2023-10-13T15:12:25;26.90;66.50
23124;DHT22;11731;48.592;8.858;2023-10-13T15:15:30;27.00;66.30
23124;DHT22;11731;48.592;8.858;2023-10-13T15:29:01;27.00;66.70
23124;DHT22;11731;48.592;8.858;2023-10-13T15:33:19;26.90;64.70
23124;DHT22;11731;48.592;8.858;2023-10-13T15:35:06;27.10;65.80
23124;DHT22;11731;48.592;8.858;2023-10-13T15:41:32;27.20;66.10
23124;DHT22;11731;48.592;8.858;2023-10-13T15:51:13;26.20;68.70
23124;DHT22;11731;48.592;8.858;2023-10-13T16:01:08;25.80;69.90
23124;DHT22;11731;48.592;8.858;2023-10-13T16:07:01;25.90;70.20
23124;DHT22;11731;48.592;8.858;2023-10-13T16:09:53;25.80;69.60
23124;DHT22;11731;48.592;8.858;2023-10-13T16:33:42;25.50;73.10
23124;DHT22;11731;48.592;8.858;2023-10-13T16:43:27;24.40;75.60
23124;DHT22;11731;48.592;8.858;2023-10-13T16:46:29;24.50;75.10
23124;DHT22;11731;48.592;8.858;2023-10-13T16:58:18;24.60;76.50
23124;DHT22;11731;48.592;8.858;2023-10-13T17:04:03;24.70;76.70
23124;DHT22;11731;48.592;8.858;2023-10-13T17:30:52;23.60;81.00
23124;DHT22;11731;48.592;8.858;2023-10-13T17:37:09;23.30;82.40
23124;DHT22;11731;48.592;8.858;2023-10-13T17:43:08;23.10;84.00
23124;DHT22;11731;48.592;8.858;2023-10-13T17:45:40;23.10;83.80
23124;DHT22;11731;48.592;8.858;2023-10-13T17:48:09;23.00;83.90
23124;DHT22;11731;48.592;8.858;2023-10-13T17:50:35;22.80;84.50
23124;DHT22;11731;48.592;8.858;2023-10-13T17:53:26;22.70;84.90
23124;DHT22;11731;48.592;8.858;2023-10-13T17:56:02;22.60;85.10
23124;DHT22;11731;48.592;8.858;2023-10-13T17:58:31;22.50;86.20
23124;DHT22;11731;48.592;8.858;2023-10-13T18:00:58;22.40;86.40
23124;DHT22;11731;48.592;8.858;2023-10-13T18:03:29;22.20;87.10
23124;DHT22;11731;48.592;8.858;2023-10-13T18:05:58;22.10;88.10
23124;DHT22;11731;48.592;8.858;2023-10-13T18:08:26;22.00;88.10
23124;DHT22;11731;48.592;8.858;2023-10-13T18:11:39;21.90;87.70
23124;DHT22;11731;48.592;8.858;2023-10-13T18:15:15;22.00;88.10
23124;DHT22;11731;48.592;8.858;2023-10-13T18:19:13;21.80;90.00
23124;DHT22;11731;48.592;8.858;2023-10-13T18:21:04;21.50;90.00
23124;DHT22;11731;48.592;8.858;2023-10-13T18:23:33;21.80;89.80
23124;DHT22;11731;48.592;8.858;2023-10-13T18:26:01;21.70;88.60
23124;DHT22;11731;48.592;8.858;2023-10-13T18:28:47;21.60;90.30
23124;DHT22;11731;48.592;8.858;2023-10-13T18:32:13;21.60;90.10
23124;DHT22;11731;48.592;8.858;2023-10-13T18:34:32;21.60;90.60
23124;DHT22;11731;48.592;8.858;2023-10-13T18:37:00;21.40;90.70
23124;DHT22;11731;48.592;8.858;2023-10-13T19:05:55;20.30;93.10
23124;DHT22;11731;48.592;8.858;2023-10-13T19:08:27;20.40;92.60
23124;DHT22;11731;48.592;8.858;2023-10-13T19:11:03;20.50;92.80
23124;DHT22;11731;48.592;8.858;2023-10-13T19:14:11;20.30;93.00
23124;DHT22;11731;48.592;8.858;2023-10-13T19:16:49;20.50;92.60
23124;DHT22;11731;48.592;8.858;2023-10-13T19:26:42;20.60;92.60
23124;DHT22;11731;48.592;8.858;2023-10-13T19:29:12;20.70;92.10
23124;DHT22;11731;48.592;8.858;2023-10-13T19:32:52;20.80;92.10
23124;DHT22;11731;48.592;8.858;2023-10-13T19:35:52;20.90;92.40
23124;DHT22;11731;48.592;8.858;2023-10-13T19:38:48;20.90;91.90
23124;DHT22;11731;48.592;8.858;2023-10-13T19:44:52;20.80;92.60
23124;DHT22;11731;48.592;8.858;2023-10-13T19:47:37;20.80;91.80
23124;DHT22;11731;48.592;8.858;2023-10-13T19:50:27;20.80;92.00
23124;DHT22;11731;48.592;8.858;2023-10-13T19:53:07;20.80;91.80
23124;DHT22;11731;48.592;8.858;2023-10-13T19:55:49;20.60;91.50
23124;DHT22;11731;48.592;8.858;2023-10-13T19:58:21;20.60;91.50
23124;DHT22;11731;48.592;8.858;2023-10-13T20:08:34;20.80;92.60
23124;DHT22;11731;48.592;8.858;2023-10-13T20:11:24;20.70;92.90
23124;DHT22;11731;48.592;8.858;2023-10-13T20:17:15;19.90;94.40
23124;DHT22;11731;48.592;8.858;2023-10-13T20:19:45;19.60;94.30
23124;DHT22;11731;48.592;8.858;2023-10-13T20:22:13;19.70;94.50
23124;DHT22;11731;48.592;8.858;2023-10-13T20:28:00;20.10;94.00
23124;DHT22;11731;48.592;8.858;2023-10-13T20:30:59;20.20;93.30